createdAt,value
2018-09-14T00:00:17.673Z,16.80
2018-09-14T00:01:21.073Z,16.70
2018-09-14T00:02:24.506Z,16.70
2018-09-14T00:03:27.933Z,16.70
2018-09-14T00:04:31.320Z,16.80
2018-09-14T00:05:34.806Z,16.70
2018-09-14T00:06:38.276Z,16.70
2018-09-14T00:07:41.693Z,16.70
2018-09-14T00:08:45.173Z,16.70
2018-09-14T00:09:48.749Z,16.70
2018-09-14T00:10:52.216Z,16.70
2018-09-14T00:11:55.632Z,16.70
2018-09-14T00:12:59.027Z,16.70
2018-09-14T00:14:02.424Z,16.70
2018-09-14T00:15:05.889Z,16.70
2018-09-14T00:16:09.299Z,16.70
2018-09-14T00:17:12.819Z,16.70
2018-09-14T00:18:16.259Z,16.70
2018-09-14T00:19:19.677Z,16.70
2018-09-14T00:20:23.304Z,16.70
2018-09-14T00:21:26.696Z,16.60
2018-09-14T00:22:30.109Z,16.60
2018-09-14T00:23:33.512Z,16.60
2018-09-14T00:24:36.925Z,16.60
2018-09-14T00:25:40.332Z,16.60
2018-09-14T00:26:43.733Z,16.60
2018-09-14T00:27:47.173Z,16.60
2018-09-14T00:28:50.563Z,16.60
2018-09-14T00:29:53.980Z,16.60
2018-09-14T00:30:57.404Z,16.60
2018-09-14T00:32:00.829Z,16.60
2018-09-14T00:33:04.257Z,16.60
2018-09-14T00:34:08.013Z,16.60
2018-09-14T00:35:11.448Z,16.60
2018-09-14T00:36:14.839Z,16.60
2018-09-14T00:37:18.267Z,16.50
2018-09-14T00:38:21.667Z,16.50
2018-09-14T00:39:25.169Z,16.50
2018-09-14T00:40:28.608Z,16.50
2018-09-14T00:41:32.032Z,16.50
2018-09-14T00:42:35.618Z,16.50
2018-09-14T00:43:39.085Z,16.50
2018-09-14T00:44:42.503Z,16.50
2018-09-14T00:45:45.924Z,16.40
2018-09-14T00:46:49.353Z,16.40
2018-09-14T00:47:52.750Z,16.40
2018-09-14T00:48:56.148Z,16.40
2018-09-14T00:49:59.548Z,16.40
2018-09-14T00:51:02.995Z,16.40
2018-09-14T00:52:06.419Z,16.40
2018-09-14T00:53:09.844Z,16.50
2018-09-14T00:54:13.286Z,16.50
2018-09-14T00:55:16.777Z,16.40
2018-09-14T00:56:20.184Z,16.40
2018-09-14T00:57:23.721Z,16.40
2018-09-14T00:58:27.133Z,16.40
2018-09-14T00:59:30.645Z,16.40
2018-09-14T01:00:34.124Z,16.40
2018-09-14T01:01:37.589Z,16.40
2018-09-14T01:02:41.001Z,16.40
2018-09-14T01:03:44.480Z,16.40
2018-09-14T01:04:47.940Z,16.40
2018-09-14T01:05:51.495Z,16.40
2018-09-14T01:06:54.982Z,16.40
2018-09-14T01:07:58.367Z,16.40
2018-09-14T01:09:01.799Z,16.40
2018-09-14T01:10:06.333Z,16.40
2018-09-14T01:11:09.731Z,16.30
2018-09-14T01:12:13.166Z,16.30
2018-09-14T01:13:16.628Z,16.30
2018-09-14T01:14:20.042Z,16.30
2018-09-14T01:15:23.452Z,16.30
2018-09-14T01:16:26.885Z,16.30
2018-09-14T01:17:30.297Z,16.30
2018-09-14T01:18:33.687Z,16.30
2018-09-14T01:19:37.274Z,16.30
2018-09-14T01:20:40.691Z,16.30
2018-09-14T01:21:44.131Z,16.30
2018-09-14T01:22:47.679Z,16.30
2018-09-14T01:23:51.140Z,16.30
2018-09-14T01:24:54.711Z,16.30
2018-09-14T01:25:58.112Z,16.30
2018-09-14T01:27:01.594Z,16.30
2018-09-14T01:28:04.982Z,16.30
2018-09-14T01:29:08.433Z,16.30
2018-09-14T01:30:11.865Z,16.30
2018-09-14T01:31:15.316Z,16.30
2018-09-14T01:32:18.805Z,16.20
2018-09-14T01:33:22.209Z,16.20
2018-09-14T01:34:25.624Z,16.20
2018-09-14T01:35:34.505Z,16.20
2018-09-14T01:36:37.915Z,16.20
2018-09-14T01:37:41.400Z,16.20
2018-09-14T01:38:44.799Z,16.20
2018-09-14T01:39:48.187Z,16.20
2018-09-14T01:40:51.621Z,16.20
2018-09-14T01:41:55.147Z,16.20
2018-09-14T01:42:58.703Z,16.20
2018-09-14T01:44:02.114Z,16.20
2018-09-14T01:45:05.636Z,16.20
2018-09-14T01:46:09.031Z,16.20
2018-09-14T01:47:12.520Z,16.20
2018-09-14T01:48:16.009Z,16.20
2018-09-14T01:49:19.479Z,16.20
2018-09-14T01:50:22.869Z,16.20
2018-09-14T01:51:26.365Z,16.20
2018-09-14T01:52:29.760Z,16.10
2018-09-14T01:53:33.208Z,16.10
2018-09-14T01:54:36.617Z,16.10
2018-09-14T01:55:40.077Z,16.10
2018-09-14T01:56:43.492Z,16.10
2018-09-14T01:57:46.919Z,16.10
2018-09-14T01:58:50.353Z,16.10
2018-09-14T01:59:53.796Z,16.10
2018-09-14T02:00:57.210Z,16.10
2018-09-14T02:02:00.664Z,16.10
2018-09-14T02:03:04.101Z,16.10
2018-09-14T02:04:07.581Z,16.10
2018-09-14T02:05:10.976Z,16.10
2018-09-14T02:06:14.688Z,16.10
2018-09-14T02:07:18.079Z,16.10
2018-09-14T02:08:21.504Z,16.10
2018-09-14T02:09:24.984Z,16.10
2018-09-14T02:10:28.432Z,16.10
2018-09-14T02:11:31.830Z,16.10
2018-09-14T02:12:35.299Z,16.10
2018-09-14T02:13:38.800Z,16.00
2018-09-14T02:14:42.260Z,16.00
2018-09-14T02:15:45.660Z,16.00
2018-09-14T02:16:49.138Z,16.00
2018-09-14T02:17:52.615Z,16.00
2018-09-14T02:18:56.023Z,15.90
2018-09-14T02:19:59.452Z,16.00
2018-09-14T02:21:02.858Z,15.90
2018-09-14T02:22:06.525Z,15.90
2018-09-14T02:23:09.992Z,15.90
2018-09-14T02:24:13.397Z,15.90
2018-09-14T02:25:16.924Z,15.90
2018-09-14T02:26:20.398Z,15.90
2018-09-14T02:27:24.003Z,15.90
2018-09-14T02:28:27.407Z,15.90
2018-09-14T02:29:30.844Z,15.90
2018-09-14T02:30:34.305Z,15.90
2018-09-14T02:31:37.720Z,15.90
2018-09-14T02:32:41.121Z,15.90
2018-09-14T02:33:44.522Z,15.90
2018-09-14T02:34:47.928Z,15.90
2018-09-14T02:35:51.407Z,15.90
2018-09-14T02:36:54.803Z,15.90
2018-09-14T02:37:58.207Z,15.90
2018-09-14T02:39:01.673Z,15.80
2018-09-14T02:40:05.112Z,15.80
2018-09-14T02:41:08.552Z,15.90
2018-09-14T02:42:12.019Z,15.90
2018-09-14T02:43:15.420Z,15.90
2018-09-14T02:44:18.809Z,15.90
2018-09-14T02:45:22.224Z,15.90
2018-09-14T02:46:25.655Z,15.90
2018-09-14T02:47:29.163Z,15.90
2018-09-14T02:48:32.643Z,15.90
2018-09-14T02:49:36.037Z,15.90
2018-09-14T02:50:39.476Z,15.80
2018-09-14T02:51:42.932Z,15.80
2018-09-14T02:52:46.335Z,15.80
2018-09-14T02:53:49.784Z,15.80
2018-09-14T02:54:53.312Z,15.80
2018-09-14T02:55:56.741Z,15.80
2018-09-14T02:57:00.196Z,15.80
2018-09-14T02:58:03.617Z,15.80
2018-09-14T02:59:07.004Z,15.80
2018-09-14T03:00:10.607Z,15.80
2018-09-14T03:01:14.008Z,15.80
2018-09-14T03:02:17.459Z,15.80
2018-09-14T03:03:20.926Z,15.70
2018-09-14T03:04:24.332Z,15.70
2018-09-14T03:05:27.728Z,15.80
2018-09-14T03:06:31.139Z,15.70
2018-09-14T03:07:34.625Z,15.70
2018-09-14T03:08:38.094Z,15.70
2018-09-14T03:09:41.448Z,15.70
2018-09-14T03:10:44.893Z,15.70
2018-09-14T03:11:48.285Z,15.70
2018-09-14T03:12:51.872Z,15.70
2018-09-14T03:13:55.296Z,15.70
2018-09-14T03:14:58.733Z,15.70
2018-09-14T03:16:02.173Z,15.70
2018-09-14T03:17:05.852Z,15.60
2018-09-14T03:18:09.289Z,15.60
2018-09-14T03:19:12.709Z,15.60
2018-09-14T03:20:16.156Z,15.60
2018-09-14T03:21:19.581Z,15.60
2018-09-14T03:22:22.980Z,15.60
2018-09-14T03:23:26.481Z,15.60
2018-09-14T03:24:29.915Z,15.60
2018-09-14T03:25:33.347Z,15.60
2018-09-14T03:26:36.741Z,15.60
2018-09-14T03:27:40.148Z,15.60
2018-09-14T03:28:43.564Z,15.60
2018-09-14T03:29:47.008Z,15.60
2018-09-14T03:30:50.453Z,15.60
2018-09-14T03:31:53.854Z,15.60
2018-09-14T03:32:57.340Z,15.60
2018-09-14T03:34:00.879Z,15.60
2018-09-14T03:35:04.280Z,15.60
2018-09-14T03:36:08.032Z,15.60
2018-09-14T03:37:11.699Z,15.60
2018-09-14T03:38:15.133Z,15.60
2018-09-14T03:39:18.627Z,15.60
2018-09-14T03:40:21.972Z,15.60
2018-09-14T03:41:25.431Z,15.60
2018-09-14T03:42:28.899Z,15.60
2018-09-14T03:43:32.408Z,15.60
2018-09-14T03:44:36.085Z,15.60
2018-09-14T03:45:39.500Z,15.60
2018-09-14T03:46:42.917Z,15.60
2018-09-14T03:47:46.326Z,15.50
2018-09-14T03:48:49.725Z,15.50
2018-09-14T03:49:53.176Z,15.50
2018-09-14T03:50:56.589Z,15.50
2018-09-14T03:52:00.009Z,15.50
2018-09-14T03:53:03.432Z,15.50
2018-09-14T03:54:07.068Z,15.50
2018-09-14T03:55:10.505Z,15.50
2018-09-14T03:56:13.915Z,15.50
2018-09-14T03:57:17.331Z,15.50
2018-09-14T03:58:20.720Z,15.50
2018-09-14T03:59:24.134Z,15.50
2018-09-14T04:00:27.547Z,15.50
2018-09-14T04:01:30.971Z,15.50
2018-09-14T04:02:34.384Z,15.50
2018-09-14T04:03:37.829Z,15.50
2018-09-14T04:04:41.229Z,15.50
2018-09-14T04:05:44.721Z,15.50
2018-09-14T04:06:48.115Z,15.50
2018-09-14T04:07:51.550Z,15.40
2018-09-14T04:08:54.987Z,15.40
2018-09-14T04:09:58.456Z,15.50
2018-09-14T04:11:01.897Z,15.40
2018-09-14T04:12:05.384Z,15.40
2018-09-14T04:13:08.843Z,15.40
2018-09-14T04:14:12.248Z,15.40
2018-09-14T04:15:15.649Z,15.40
2018-09-14T04:16:19.200Z,15.40
2018-09-14T04:17:22.612Z,15.40
2018-09-14T04:18:26.048Z,15.40
2018-09-14T04:19:29.456Z,15.50
2018-09-14T04:20:32.929Z,15.50
2018-09-14T04:21:36.918Z,15.50
2018-09-14T04:22:40.341Z,15.50
2018-09-14T04:23:43.795Z,15.50
2018-09-14T04:24:47.229Z,15.50
2018-09-14T04:25:50.663Z,15.50
2018-09-14T04:26:54.072Z,15.50
2018-09-14T04:27:57.608Z,15.50
2018-09-14T04:29:01.361Z,15.50
2018-09-14T04:30:04.820Z,15.50
2018-09-14T04:31:08.280Z,15.50
2018-09-14T04:32:11.718Z,15.50
2018-09-14T04:33:15.241Z,15.50
2018-09-14T04:34:18.698Z,15.50
2018-09-14T04:35:22.092Z,15.50
2018-09-14T04:36:25.496Z,15.50
2018-09-14T04:37:28.932Z,15.50
2018-09-14T04:38:32.569Z,15.50
2018-09-14T04:39:35.863Z,15.50
2018-09-14T04:40:39.529Z,15.50
2018-09-14T04:41:42.944Z,15.50
2018-09-14T04:42:46.420Z,15.50
2018-09-14T04:43:49.832Z,15.50
2018-09-14T04:44:53.238Z,15.50
2018-09-14T04:45:56.658Z,15.50
2018-09-14T04:47:00.104Z,15.40
2018-09-14T04:48:03.697Z,15.40
2018-09-14T04:49:07.115Z,15.40
2018-09-14T04:50:10.578Z,15.40
2018-09-14T04:51:13.998Z,15.40
2018-09-14T04:52:17.406Z,15.40
2018-09-14T04:53:20.835Z,15.40
2018-09-14T04:54:24.365Z,15.40
2018-09-14T04:55:27.704Z,15.40
2018-09-14T04:56:31.200Z,15.40
2018-09-14T04:57:34.622Z,15.40
2018-09-14T04:58:38.092Z,15.40
2018-09-14T04:59:41.555Z,15.40
2018-09-14T05:00:44.983Z,15.40
2018-09-14T05:01:48.383Z,15.40
2018-09-14T05:02:51.988Z,15.40
2018-09-14T05:03:55.446Z,15.40
2018-09-14T05:04:58.849Z,15.40
2018-09-14T05:06:02.313Z,15.40
2018-09-14T05:07:05.713Z,15.40
2018-09-14T05:08:09.212Z,15.40
2018-09-14T05:09:12.690Z,15.40
2018-09-14T05:10:16.111Z,15.40
2018-09-14T05:11:19.628Z,15.40
2018-09-14T05:12:23.125Z,15.40
2018-09-14T05:13:26.959Z,15.40
2018-09-14T05:14:30.558Z,15.40
2018-09-14T05:15:33.957Z,15.40
2018-09-14T05:16:37.384Z,15.40
2018-09-14T05:17:40.771Z,15.40
2018-09-14T05:18:44.263Z,15.30
2018-09-14T05:19:47.680Z,15.30
2018-09-14T05:20:51.151Z,15.40
2018-09-14T05:21:54.560Z,15.40
2018-09-14T05:22:57.972Z,15.40
2018-09-14T05:24:01.441Z,15.40
2018-09-14T05:25:04.906Z,15.40
2018-09-14T05:26:08.490Z,15.40
2018-09-14T05:27:11.909Z,15.40
2018-09-14T05:28:15.432Z,15.40
2018-09-14T05:29:18.873Z,15.40
2018-09-14T05:30:22.289Z,15.40
2018-09-14T05:31:25.720Z,15.40
2018-09-14T05:32:29.192Z,15.50
2018-09-14T05:33:32.635Z,15.50
2018-09-14T05:34:36.084Z,15.50
2018-09-14T05:35:39.525Z,15.50
2018-09-14T05:36:43.013Z,15.50
2018-09-14T05:37:46.463Z,15.50
2018-09-14T05:38:49.953Z,15.50
2018-09-14T05:39:53.444Z,15.50
2018-09-14T05:40:56.872Z,15.60
2018-09-14T05:42:00.301Z,15.60
2018-09-14T05:43:03.700Z,15.60
2018-09-14T05:44:07.152Z,15.60
2018-09-14T05:45:10.565Z,15.60
2018-09-14T05:46:14.038Z,15.60
2018-09-14T05:47:17.452Z,15.60
2018-09-14T05:48:20.952Z,15.70
2018-09-14T05:49:24.363Z,15.70
2018-09-14T05:50:27.816Z,15.70
2018-09-14T05:51:31.684Z,15.70
2018-09-14T05:52:35.108Z,15.70
2018-09-14T05:53:38.565Z,15.70
2018-09-14T05:54:42.213Z,15.70
2018-09-14T05:55:45.642Z,15.70
2018-09-14T05:56:49.256Z,15.70
2018-09-14T05:57:52.698Z,15.70
2018-09-14T05:58:56.152Z,15.80
2018-09-14T05:59:59.612Z,15.80
2018-09-14T06:01:03.019Z,15.80
2018-09-14T06:02:06.564Z,15.80
2018-09-14T06:03:09.976Z,15.80
2018-09-14T06:04:13.445Z,15.80
2018-09-14T06:05:16.861Z,15.80
2018-09-14T06:06:20.296Z,15.80
2018-09-14T06:07:23.907Z,15.80
2018-09-14T06:08:27.315Z,15.80
2018-09-14T06:09:30.727Z,15.80
2018-09-14T06:10:34.207Z,15.90
2018-09-14T06:11:37.717Z,15.90
2018-09-14T06:12:41.180Z,15.90
2018-09-14T06:13:44.613Z,15.90
2018-09-14T06:14:48.082Z,15.90
2018-09-14T06:15:51.493Z,15.80
2018-09-14T06:16:54.942Z,15.90
2018-09-14T06:17:58.363Z,15.90
2018-09-14T06:19:01.871Z,15.90
2018-09-14T06:20:05.492Z,15.90
2018-09-14T06:21:08.940Z,15.90
2018-09-14T06:22:12.371Z,15.90
2018-09-14T06:23:15.868Z,16.00
2018-09-14T06:24:20.776Z,16.00
2018-09-14T06:25:24.212Z,16.00
2018-09-14T06:26:27.651Z,16.00
2018-09-14T06:27:31.119Z,16.00
2018-09-14T06:28:34.575Z,16.10
2018-09-14T06:29:37.995Z,16.10
2018-09-14T06:30:41.495Z,16.10
2018-09-14T06:31:44.932Z,16.10
2018-09-14T06:32:48.348Z,16.20
2018-09-14T06:33:51.804Z,16.20
2018-09-14T06:34:55.426Z,16.10
2018-09-14T06:35:58.844Z,16.20
2018-09-14T06:37:02.287Z,16.20
2018-09-14T06:38:05.805Z,16.20
2018-09-14T06:39:10.853Z,16.20
2018-09-14T06:40:14.296Z,16.20
2018-09-14T06:41:17.842Z,16.30
2018-09-14T06:42:21.365Z,16.30
2018-09-14T06:43:24.811Z,16.30
2018-09-14T06:44:28.271Z,16.30
2018-09-14T06:45:31.782Z,16.30
2018-09-14T06:46:35.282Z,16.40
2018-09-14T06:47:38.914Z,16.40
2018-09-14T06:48:42.316Z,16.40
2018-09-14T06:49:45.840Z,16.50
2018-09-14T06:50:49.251Z,16.50
2018-09-14T06:51:52.654Z,16.50
2018-09-14T06:52:56.063Z,16.60
2018-09-14T06:53:59.526Z,16.60
2018-09-14T06:55:02.965Z,16.60
2018-09-14T06:56:06.392Z,16.60
2018-09-14T06:57:09.813Z,16.60
2018-09-14T06:58:13.346Z,16.60
2018-09-14T06:59:16.796Z,16.60
2018-09-14T07:00:20.405Z,16.70
2018-09-14T07:01:23.745Z,16.70
2018-09-14T07:02:27.994Z,16.70
2018-09-14T07:03:31.396Z,16.70
2018-09-14T07:04:34.936Z,16.70
2018-09-14T07:05:38.347Z,16.70
2018-09-14T07:06:41.944Z,16.70
2018-09-14T07:07:46.089Z,16.70
2018-09-14T07:08:49.480Z,16.80
2018-09-14T07:09:52.876Z,16.80
2018-09-14T07:10:56.284Z,16.80
2018-09-14T07:11:59.693Z,16.80
2018-09-14T07:13:03.305Z,16.80
2018-09-14T07:14:06.809Z,16.80
2018-09-14T07:15:10.244Z,16.80
2018-09-14T07:16:13.636Z,16.80
2018-09-14T07:17:17.162Z,16.90
2018-09-14T07:18:20.559Z,16.80
2018-09-14T07:19:24.086Z,16.80
2018-09-14T07:20:27.494Z,16.80
2018-09-14T07:21:30.882Z,16.90
2018-09-14T07:22:34.273Z,16.90
2018-09-14T07:23:37.807Z,16.90
2018-09-14T07:24:41.328Z,16.90
2018-09-14T07:25:44.690Z,16.90
2018-09-14T07:26:48.152Z,17.00
2018-09-14T07:27:51.565Z,16.90
2018-09-14T07:28:55.074Z,16.90
2018-09-14T07:29:58.385Z,17.00
2018-09-14T07:31:01.982Z,17.00
2018-09-14T07:32:05.407Z,17.00
2018-09-14T07:33:08.833Z,17.00
2018-09-14T07:34:12.305Z,17.00
2018-09-14T07:35:15.983Z,17.00
2018-09-14T07:36:19.438Z,16.90
2018-09-14T07:37:22.860Z,17.00
2018-09-14T07:38:26.515Z,16.90
2018-09-14T07:39:30.006Z,17.00
2018-09-14T07:40:33.403Z,17.00
2018-09-14T07:41:36.949Z,16.90
2018-09-14T07:42:40.348Z,16.90
2018-09-14T07:43:43.869Z,17.00
2018-09-14T07:44:47.463Z,17.00
2018-09-14T07:45:51.015Z,17.00
2018-09-14T07:46:54.469Z,16.90
2018-09-14T07:47:57.896Z,17.00
2018-09-14T07:49:01.380Z,17.00
2018-09-14T07:50:05.116Z,17.00
2018-09-14T07:51:08.527Z,17.00
2018-09-14T07:52:11.941Z,17.00
2018-09-14T07:53:15.340Z,17.00
2018-09-14T07:54:18.825Z,17.00
2018-09-14T07:55:22.276Z,17.10
2018-09-14T07:56:25.918Z,17.10
2018-09-14T07:57:29.458Z,17.20
2018-09-14T07:58:32.885Z,17.20
2018-09-14T07:59:36.304Z,17.20
2018-09-14T08:00:39.754Z,17.20
2018-09-14T08:01:43.164Z,17.30
2018-09-14T08:02:46.704Z,17.30
2018-09-14T08:03:50.209Z,17.30
2018-09-14T08:04:53.637Z,17.40
2018-09-14T08:05:57.095Z,17.40
2018-09-14T08:07:00.520Z,17.40
2018-09-14T08:08:04.028Z,17.50
2018-09-14T08:09:09.800Z,17.50
2018-09-14T08:10:13.229Z,17.50
2018-09-14T08:11:16.689Z,17.50
2018-09-14T08:12:20.276Z,17.50
2018-09-14T08:13:23.781Z,17.50
2018-09-14T08:14:27.171Z,17.50
2018-09-14T08:15:30.580Z,17.60
2018-09-14T08:16:34.028Z,17.60
2018-09-14T08:17:37.560Z,17.60
2018-09-14T08:18:41.021Z,17.60
2018-09-14T08:19:44.405Z,17.60
2018-09-14T08:20:47.828Z,17.60
2018-09-14T08:21:51.795Z,17.60
2018-09-14T08:22:55.115Z,17.60
2018-09-14T08:23:58.536Z,17.60
2018-09-14T08:25:01.962Z,17.60
2018-09-14T08:26:05.398Z,17.60
2018-09-14T08:27:08.873Z,17.60
2018-09-14T08:28:12.233Z,17.60
2018-09-14T08:29:15.667Z,17.50
2018-09-14T08:30:19.096Z,17.50
2018-09-14T08:31:22.758Z,17.50
2018-09-14T08:32:26.227Z,17.50
2018-09-14T08:33:29.585Z,17.50
2018-09-14T08:34:33.183Z,17.50
2018-09-14T08:35:36.576Z,17.40
2018-09-14T08:36:40.001Z,17.40
2018-09-14T08:37:43.648Z,17.40
2018-09-14T08:38:47.101Z,17.40
2018-09-14T08:39:50.569Z,17.40
2018-09-14T08:40:54.087Z,17.40
2018-09-14T08:41:57.521Z,17.30
2018-09-14T08:43:00.978Z,17.30
2018-09-14T08:44:04.388Z,17.30
2018-09-14T08:45:07.858Z,17.30
2018-09-14T08:46:11.264Z,17.30
2018-09-14T08:47:14.797Z,17.30
2018-09-14T08:48:18.187Z,17.30
2018-09-14T08:49:21.617Z,17.30
2018-09-14T08:50:25.030Z,17.30
2018-09-14T08:51:28.432Z,17.30
2018-09-14T08:52:31.876Z,17.20
2018-09-14T08:53:35.302Z,17.30
2018-09-14T08:54:38.715Z,17.20
2018-09-14T08:55:42.137Z,17.30
2018-09-14T08:56:45.591Z,17.20
2018-09-14T08:57:49.014Z,17.20
2018-09-14T08:58:52.453Z,17.20
2018-09-14T08:59:55.862Z,17.20
2018-09-14T09:00:59.282Z,17.20
2018-09-14T09:02:02.823Z,17.20
2018-09-14T09:03:06.234Z,17.20
2018-09-14T09:04:09.817Z,17.20
2018-09-14T09:05:13.220Z,17.20
2018-09-14T09:06:16.704Z,17.20
2018-09-14T09:07:20.206Z,17.30
2018-09-14T09:08:23.591Z,17.30
2018-09-14T09:09:26.987Z,17.30
2018-09-14T09:10:30.380Z,17.30
2018-09-14T09:11:33.829Z,17.30
2018-09-14T09:12:37.224Z,17.30
2018-09-14T09:13:40.667Z,17.30
2018-09-14T09:14:44.060Z,17.30
2018-09-14T09:15:47.492Z,17.30
2018-09-14T09:16:50.908Z,17.40
2018-09-14T09:17:54.478Z,17.40
2018-09-14T09:18:57.792Z,17.40
2018-09-14T09:20:01.267Z,17.40
2018-09-14T09:21:04.885Z,17.40
2018-09-14T09:22:08.361Z,17.40
2018-09-14T09:23:11.744Z,17.40
2018-09-14T09:24:15.208Z,17.40
2018-09-14T09:25:18.633Z,17.40
2018-09-14T09:26:22.126Z,17.40
2018-09-14T09:27:25.548Z,17.40
2018-09-14T09:28:28.953Z,17.40
2018-09-14T09:29:32.419Z,17.50
2018-09-14T09:30:35.753Z,17.50
2018-09-14T09:31:39.168Z,17.50
2018-09-14T09:32:42.796Z,17.50
2018-09-14T09:33:46.204Z,17.50
2018-09-14T09:34:49.651Z,17.50
2018-09-14T09:35:53.116Z,17.50
2018-09-14T09:36:56.821Z,17.50
2018-09-14T09:38:00.281Z,17.50
2018-09-14T09:39:05.399Z,17.50
2018-09-14T09:40:08.794Z,17.50
2018-09-14T09:41:12.270Z,17.50
2018-09-14T09:42:15.659Z,17.60
2018-09-14T09:43:19.140Z,17.60
2018-09-14T09:44:22.533Z,17.60
2018-09-14T09:45:25.989Z,17.60
2018-09-14T09:46:29.375Z,17.60
2018-09-14T09:47:32.789Z,17.60
2018-09-14T09:48:36.264Z,17.60
2018-09-14T09:49:39.708Z,17.60
2018-09-14T09:50:43.183Z,17.60
2018-09-14T09:51:46.576Z,17.60
2018-09-14T09:52:49.972Z,17.60
2018-09-14T09:53:53.451Z,17.70
2018-09-14T09:54:56.917Z,17.70
2018-09-14T09:56:00.308Z,17.70
2018-09-14T09:57:03.752Z,17.70
2018-09-14T09:58:07.700Z,17.70
2018-09-14T09:59:11.149Z,17.70
2018-09-14T10:00:19.989Z,17.70
2018-09-14T10:01:29.740Z,17.70
2018-09-14T10:02:37.044Z,17.70
2018-09-14T10:03:44.160Z,17.80
2018-09-14T10:05:52.412Z,17.80
2018-09-14T10:06:56.451Z,17.80
2018-09-14T10:07:59.918Z,17.80
2018-09-14T10:09:03.629Z,17.80
2018-09-14T10:10:07.096Z,17.80
2018-09-14T10:11:10.601Z,17.80
2018-09-14T10:12:14.117Z,17.80
2018-09-14T10:13:17.516Z,17.80
2018-09-14T10:14:20.973Z,17.90
2018-09-14T10:15:24.386Z,17.90
2018-09-14T10:16:27.787Z,17.90
2018-09-14T10:17:31.231Z,17.90
2018-09-14T10:18:34.626Z,17.90
2018-09-14T10:19:38.419Z,18.00
2018-09-14T10:20:41.895Z,18.00
2018-09-14T10:21:45.345Z,18.00
2018-09-14T10:22:48.708Z,18.00
2018-09-14T10:23:52.155Z,18.10
2018-09-14T10:24:55.557Z,18.10
2018-09-14T10:25:59.144Z,18.10
2018-09-14T10:27:02.614Z,18.20
2018-09-14T10:28:06.294Z,18.20
2018-09-14T10:29:09.688Z,18.20
2018-09-14T10:30:13.179Z,18.30
2018-09-14T10:31:16.654Z,18.30
2018-09-14T10:32:20.133Z,18.40
2018-09-14T10:33:23.537Z,18.40
2018-09-14T10:34:26.940Z,18.50
2018-09-14T10:35:30.339Z,18.50
2018-09-14T10:36:33.765Z,18.50
2018-09-14T10:37:37.343Z,18.50
2018-09-14T10:38:40.800Z,18.60
2018-09-14T10:39:44.216Z,18.60
2018-09-14T10:40:47.708Z,18.60
2018-09-14T10:41:51.096Z,18.70
2018-09-14T10:42:54.627Z,18.70
2018-09-14T10:43:58.022Z,18.80
2018-09-14T10:45:01.418Z,18.80
2018-09-14T10:46:05.140Z,18.90
2018-09-14T10:47:08.692Z,19.00
2018-09-14T10:48:12.093Z,19.00
2018-09-14T10:49:15.481Z,19.10
2018-09-14T10:50:18.961Z,19.20
2018-09-14T10:51:22.348Z,19.20
2018-09-14T10:52:25.773Z,19.20
2018-09-14T10:53:29.179Z,19.20
2018-09-14T10:54:32.804Z,19.30
2018-09-14T10:55:36.233Z,19.30
2018-09-14T10:56:39.649Z,19.30
2018-09-14T10:57:43.060Z,19.30
2018-09-14T10:58:46.793Z,19.30
2018-09-14T10:59:50.256Z,19.30
2018-09-14T11:00:54.700Z,19.30
2018-09-14T11:01:58.033Z,19.30
2018-09-14T11:03:01.485Z,19.30
2018-09-14T11:04:04.901Z,19.30
2018-09-14T11:05:08.463Z,19.30
2018-09-14T11:06:12.713Z,19.20
2018-09-14T11:07:16.101Z,19.20
2018-09-14T11:08:19.507Z,19.20
2018-09-14T11:09:22.979Z,19.20
2018-09-14T11:10:26.564Z,19.20
2018-09-14T11:11:30.049Z,19.10
2018-09-14T11:12:33.621Z,19.10
2018-09-14T11:13:37.046Z,19.10
2018-09-14T11:14:40.458Z,19.00
2018-09-14T11:15:43.907Z,19.00
2018-09-14T11:16:47.359Z,19.00
2018-09-14T11:17:50.792Z,19.00
2018-09-14T11:18:54.211Z,19.00
2018-09-14T11:19:57.722Z,19.00
2018-09-14T11:21:01.108Z,19.00
2018-09-14T11:22:04.507Z,19.00
2018-09-14T11:23:07.928Z,19.00
2018-09-14T11:24:11.467Z,19.10
2018-09-14T11:25:15.087Z,19.10
2018-09-14T11:26:18.428Z,19.20
2018-09-14T11:27:21.819Z,19.20
2018-09-14T11:28:25.278Z,19.20
2018-09-14T11:29:28.680Z,19.30
2018-09-14T11:30:32.079Z,19.30
2018-09-14T11:31:35.663Z,19.40
2018-09-14T11:32:39.104Z,19.50
2018-09-14T11:33:42.644Z,19.50
2018-09-14T11:34:46.052Z,19.50
2018-09-14T11:35:49.480Z,19.50
2018-09-14T11:36:52.872Z,19.50
2018-09-14T11:37:56.474Z,19.60
2018-09-14T11:38:59.890Z,19.60
2018-09-14T11:40:03.329Z,19.60
2018-09-14T11:41:06.849Z,19.60
2018-09-14T11:42:10.316Z,19.70
2018-09-14T11:43:13.723Z,19.70
2018-09-14T11:44:17.233Z,19.80
2018-09-14T11:45:20.677Z,19.80
2018-09-14T11:46:24.253Z,19.90
2018-09-14T11:47:27.935Z,19.90
2018-09-14T11:48:31.370Z,20.00
2018-09-14T11:49:34.764Z,20.00
2018-09-14T11:50:38.308Z,20.00
2018-09-14T11:51:41.900Z,20.00
2018-09-14T11:52:45.301Z,20.10
2018-09-14T11:53:48.828Z,20.10
2018-09-14T11:54:52.372Z,20.10
2018-09-14T11:55:55.777Z,20.10
2018-09-14T11:56:59.248Z,20.10
2018-09-14T11:58:02.894Z,20.00
2018-09-14T11:59:06.287Z,20.00
2018-09-14T12:00:09.817Z,20.00
2018-09-14T12:01:13.252Z,20.00
2018-09-14T12:02:16.781Z,20.00
2018-09-14T12:03:20.203Z,20.00
2018-09-14T12:04:23.655Z,20.00
2018-09-14T12:05:27.010Z,20.00
2018-09-14T12:06:30.815Z,20.00
2018-09-14T12:07:37.074Z,20.00
2018-09-14T12:08:40.572Z,20.00
2018-09-14T12:09:44.000Z,20.10
2018-09-14T12:10:47.451Z,20.10
2018-09-14T12:11:50.894Z,20.00
2018-09-14T12:12:54.372Z,20.10
2018-09-14T12:13:57.807Z,20.10
2018-09-14T12:15:01.223Z,20.10
2018-09-14T12:16:04.652Z,20.10
2018-09-14T12:17:08.109Z,20.10
2018-09-14T12:18:11.532Z,20.20
2018-09-14T12:19:14.932Z,20.20
2018-09-14T12:20:18.349Z,20.20
2018-09-14T12:21:21.948Z,20.30
2018-09-14T12:22:25.418Z,20.30
2018-09-14T12:23:28.759Z,20.40
2018-09-14T12:24:32.292Z,20.40
2018-09-14T12:25:37.407Z,20.40
2018-09-14T12:26:40.857Z,20.50
2018-09-14T12:27:44.256Z,20.50
2018-09-14T12:28:47.687Z,20.60
2018-09-14T12:29:51.096Z,20.60
2018-09-14T12:30:54.537Z,20.70
2018-09-14T12:31:57.952Z,20.70
2018-09-14T12:33:01.391Z,20.70
2018-09-14T12:34:04.843Z,20.70
2018-09-14T12:35:08.353Z,20.80
2018-09-14T12:36:11.838Z,20.80
2018-09-14T12:37:15.221Z,20.80
2018-09-14T12:38:18.697Z,20.80
2018-09-14T12:39:22.089Z,20.80
2018-09-14T12:40:25.643Z,20.90
2018-09-14T12:41:29.103Z,20.90
2018-09-14T12:42:32.488Z,20.90
2018-09-14T12:43:35.898Z,21.00
2018-09-14T12:44:39.388Z,21.00
2018-09-14T12:45:42.784Z,21.10
2018-09-14T12:46:46.305Z,21.10
2018-09-14T12:47:49.788Z,21.10
2018-09-14T12:48:53.249Z,21.10
2018-09-14T12:49:56.644Z,21.10
2018-09-14T12:51:00.107Z,21.10
2018-09-14T12:52:03.504Z,21.10
2018-09-14T12:53:06.888Z,21.10
2018-09-14T12:54:10.340Z,21.10
2018-09-14T12:55:13.780Z,21.10
2018-09-14T12:56:17.215Z,21.10
2018-09-14T12:57:20.621Z,21.10
2018-09-14T12:58:24.039Z,21.10
2018-09-14T12:59:27.441Z,21.10
2018-09-14T13:00:30.851Z,21.10
2018-09-14T13:01:34.245Z,21.10
2018-09-14T13:02:37.728Z,21.10
2018-09-14T13:03:41.174Z,21.10
2018-09-14T13:04:44.691Z,21.20
2018-09-14T13:05:48.208Z,21.20
2018-09-14T13:06:51.806Z,21.20
2018-09-14T13:07:55.200Z,21.20
2018-09-14T13:08:58.664Z,21.20
2018-09-14T13:10:02.104Z,21.20
2018-09-14T13:11:05.556Z,21.20
2018-09-14T13:12:08.943Z,21.30
2018-09-14T13:13:12.344Z,21.30
2018-09-14T13:14:19.555Z,21.30
2018-09-14T13:15:23.120Z,21.40
2018-09-14T13:16:26.548Z,21.40
2018-09-14T13:17:30.048Z,21.40
2018-09-14T13:18:33.532Z,21.50
2018-09-14T13:19:36.993Z,21.50
2018-09-14T13:20:40.424Z,21.50
2018-09-14T13:21:43.894Z,21.50
2018-09-14T13:22:47.272Z,21.50
2018-09-14T13:23:50.879Z,21.50
2018-09-14T13:24:54.328Z,21.50
2018-09-14T13:25:57.790Z,21.50
2018-09-14T13:27:01.187Z,21.50
2018-09-14T13:28:04.656Z,21.50
2018-09-14T13:29:08.027Z,21.50
2018-09-14T13:30:11.418Z,21.50
2018-09-14T13:31:14.872Z,21.50
2018-09-14T13:32:18.277Z,21.60
2018-09-14T13:33:21.664Z,21.50
2018-09-14T13:34:25.093Z,21.50
2018-09-14T13:35:28.635Z,21.60
2018-09-14T13:36:32.483Z,21.60
2018-09-14T13:37:35.924Z,21.60
2018-09-14T13:38:39.346Z,21.70